sensor_id;sensor_type;location;lat;lon;timestamp;P1;durP1;ratioP1;P2;durP2;ratioP2
1400;SDS011;46518;48.842;8.926;2024-03-23T00:52:58;3.90;;;3.60;;
1400;SDS011;46518;48.842;8.926;2024-03-23T00:55:25;4.55;;;4.10;;
1400;SDS011;46518;48.842;8.926;2024-03-23T00:57:52;5.45;;;4.70;;
1400;SDS011;46518;48.842;8.926;2024-03-23T01:00:18;6.00;;;4.68;;
1400;SDS011;46518;48.842;8.926;2024-03-23T01:02:46;7.30;;;4.63;;
1400;SDS011;46518;48.842;8.926;2024-03-23T01:05:12;6.22;;;4.25;;
1400;SDS011;46518;48.842;8.926;2024-03-23T01:07:42;5.35;;;4.38;;
1400;SDS011;46518;48.842;8.926;2024-03-23T01:10:10;5.15;;;4.57;;
1400;SDS011;46518;48.842;8.926;2024-03-23T01:12:38;5.82;;;4.20;;
1400;SDS011;46518;48.842;8.926;2024-03-23T01:15:04;5.25;;;4.75;;
1400;SDS011;46518;48.842;8.926;2024-03-23T01:17:32;7.57;;;4.50;;
1400;SDS011;46518;48.842;8.926;2024-03-23T01:19:58;4.38;;;3.97;;
1400;SDS011;46518;48.842;8.926;2024-03-23T01:22:25;5.45;;;4.93;;
1400;SDS011;46518;48.842;8.926;2024-03-23T01:24:51;7.03;;;4.60;;
1400;SDS011;46518;48.842;8.926;2024-03-23T01:27:20;6.43;;;5.00;;
1400;SDS011;46518;48.842;8.926;2024-03-23T01:29:48;4.65;;;3.95;;
1400;SDS011;46518;48.842;8.926;2024-03-23T01:32:18;4.88;;;4.47;;
1400;SDS011;46518;48.842;8.926;2024-03-23T01:34:44;4.10;;;3.80;;
1400;SDS011;46518;48.842;8.926;2024-03-23T01:37:11;4.50;;;4.20;;
1400;SDS011;46518;48.842;8.926;2024-03-23T01:39:38;4.95;;;4.45;;
1400;SDS011;46518;48.842;8.926;2024-03-23T01:42:07;4.93;;;4.00;;
1400;SDS011;46518;48.842;8.926;2024-03-23T01:44:35;4.95;;;4.43;;
1400;SDS011;46518;48.842;8.926;2024-03-23T01:47:02;4.85;;;4.18;;
1400;SDS011;46518;48.842;8.926;2024-03-23T01:49:29;4.57;;;3.78;;
1400;SDS011;46518;48.842;8.926;2024-03-23T01:51:56;5.65;;;4.97;;
1400;SDS011;46518;48.842;8.926;2024-03-23T01:54:24;4.35;;;3.95;;
1400;SDS011;46518;48.842;8.926;2024-03-23T01:56:52;3.95;;;3.50;;
1400;SDS011;46518;48.842;8.926;2024-03-23T01:59:20;4.13;;;3.72;;
1400;SDS011;46518;48.842;8.926;2024-03-23T02:01:48;4.15;;;3.75;;
1400;SDS011;46518;48.842;8.926;2024-03-23T02:04:16;8.27;;;4.15;;
1400;SDS011;46518;48.842;8.926;2024-03-23T02:06:43;4.57;;;3.70;;
1400;SDS011;46518;48.842;8.926;2024-03-23T02:09:09;5.00;;;4.15;;
1400;SDS011;46518;48.842;8.926;2024-03-23T02:11:36;3.70;;;3.40;;
1400;SDS011;46518;48.842;8.926;2024-03-23T02:14:03;4.93;;;4.22;;
1400;SDS011;46518;48.842;8.926;2024-03-23T02:16:30;4.10;;;3.40;;
1400;SDS011;46518;48.842;8.926;2024-03-23T02:18:58;4.20;;;3.80;;
1400;SDS011;46518;48.842;8.926;2024-03-23T02:21:25;5.32;;;3.65;;
1400;SDS011;46518;48.842;8.926;2024-03-23T02:23:54;6.22;;;4.30;;
1400;SDS011;46518;48.842;8.926;2024-03-23T02:26:22;3.75;;;3.45;;
1400;SDS011;46518;48.842;8.926;2024-03-23T02:28:48;7.57;;;3.90;;
1400;SDS011;46518;48.842;8.926;2024-03-23T02:31:15;3.72;;;3.35;;
1400;SDS011;46518;48.842;8.926;2024-03-23T02:33:41;3.72;;;3.35;;
1400;SDS011;46518;48.842;8.926;2024-03-23T02:36:09;5.32;;;4.50;;
1400;SDS011;46518;48.842;8.926;2024-03-23T02:38:37;5.95;;;3.75;;
1400;SDS011;46518;48.842;8.926;2024-03-23T02:41:06;5.00;;;3.72;;
1400;SDS011;46518;48.842;8.926;2024-03-23T02:43:33;4.38;;;3.67;;
1400;SDS011;46518;48.842;8.926;2024-03-23T02:45:59;4.15;;;3.78;;
1400;SDS011;46518;48.842;8.926;2024-03-23T02:48:28;3.60;;;3.00;;
1400;SDS011;46518;48.842;8.926;2024-03-23T02:50:54;4.10;;;3.30;;
1400;SDS011;46518;48.842;8.926;2024-03-23T02:53:22;4.40;;;3.15;;
1400;SDS011;46518;48.842;8.926;2024-03-23T02:55:48;5.35;;;3.92;;
1400;SDS011;46518;48.842;8.926;2024-03-23T02:58:17;4.47;;;3.50;;
1400;SDS011;46518;48.842;8.926;2024-03-23T03:00:43;3.97;;;3.45;;
1400;SDS011;46518;48.842;8.926;2024-03-23T03:03:10;3.95;;;3.65;;
1400;SDS011;46518;48.842;8.926;2024-03-23T03:05:36;4.65;;;3.30;;
1400;SDS011;46518;48.842;8.926;2024-03-23T03:08:06;4.97;;;3.25;;
1400;SDS011;46518;48.842;8.926;2024-03-23T03:10:32;3.97;;;3.10;;
1400;SDS011;46518;48.842;8.926;2024-03-23T03:13:02;3.83;;;3.00;;
1400;SDS011;46518;48.842;8.926;2024-03-23T03:15:30;5.47;;;3.42;;
1400;SDS011;46518;48.842;8.926;2024-03-23T03:17:57;4.07;;;2.83;;
1400;SDS011;46518;48.842;8.926;2024-03-23T03:20:23;4.50;;;3.33;;
1400;SDS011;46518;48.842;8.926;2024-03-23T03:22:50;3.53;;;3.08;;
1400;SDS011;46518;48.842;8.926;2024-03-23T03:25:18;3.67;;;3.22;;
1400;SDS011;46518;48.842;8.926;2024-03-23T03:27:46;6.28;;;3.53;;
1400;SDS011;46518;48.842;8.926;2024-03-23T03:30:12;5.53;;;3.95;;
1400;SDS011;46518;48.842;8.926;2024-03-23T03:32:44;5.10;;;3.75;;
1400;SDS011;46518;48.842;8.926;2024-03-23T03:35:10;6.63;;;4.75;;
1400;SDS011;46518;48.842;8.926;2024-03-23T03:37:38;5.53;;;4.50;;
1400;SDS011;46518;48.842;8.926;2024-03-23T03:40:06;4.85;;;4.22;;
1400;SDS011;46518;48.842;8.926;2024-03-23T03:42:35;4.90;;;4.10;;
1400;SDS011;46518;48.842;8.926;2024-03-23T03:45:01;6.13;;;4.20;;
1400;SDS011;46518;48.842;8.926;2024-03-23T03:47:30;9.10;;;4.90;;
1400;SDS011;46518;48.842;8.926;2024-03-23T03:49:57;4.03;;;3.67;;
1400;SDS011;46518;48.842;8.926;2024-03-23T03:52:24;5.60;;;3.90;;
1400;SDS011;46518;48.842;8.926;2024-03-23T03:54:51;5.18;;;3.55;;
1400;SDS011;46518;48.842;8.926;2024-03-23T03:57:18;3.97;;;3.67;;
1400;SDS011;46518;48.842;8.926;2024-03-23T03:59:44;3.67;;;3.38;;
1400;SDS011;46518;48.842;8.926;2024-03-23T04:02:12;4.63;;;3.20;;
1400;SDS011;46518;48.842;8.926;2024-03-23T04:04:38;3.88;;;3.40;;
1400;SDS011;46518;48.842;8.926;2024-03-23T04:07:06;5.40;;;4.80;;
1400;SDS011;46518;48.842;8.926;2024-03-23T04:09:33;5.50;;;4.72;;
1400;SDS011;46518;48.842;8.926;2024-03-23T04:12:00;9.40;;;4.75;;
1400;SDS011;46518;48.842;8.926;2024-03-23T04:14:26;11.70;;;6.60;;
1400;SDS011;46518;48.842;8.926;2024-03-23T04:16:54;11.10;;;8.30;;
1400;SDS011;46518;48.842;8.926;2024-03-23T04:19:21;13.23;;;9.40;;
1400;SDS011;46518;48.842;8.926;2024-03-23T04:21:48;16.23;;;12.52;;
1400;SDS011;46518;48.842;8.926;2024-03-23T04:24:16;15.52;;;13.05;;
1400;SDS011;46518;48.842;8.926;2024-03-23T04:26:45;20.33;;;13.52;;
1400;SDS011;46518;48.842;8.926;2024-03-23T04:29:12;28.65;;;18.67;;
1400;SDS011;46518;48.842;8.926;2024-03-23T04:31:39;25.42;;;16.95;;
1400;SDS011;46518;48.842;8.926;2024-03-23T04:34:06;22.65;;;17.55;;
1400;SDS011;46518;48.842;8.926;2024-03-23T04:36:32;21.65;;;17.20;;
1400;SDS011;46518;48.842;8.926;2024-03-23T04:39:00;26.80;;;17.73;;
1400;SDS011;46518;48.842;8.926;2024-03-23T04:41:28;26.52;;;16.95;;
1400;SDS011;46518;48.842;8.926;2024-03-23T04:43:57;28.73;;;18.40;;
1400;SDS011;46518;48.842;8.926;2024-03-23T04:49:41;27.05;;;19.30;;
1400;SDS011;46518;48.842;8.926;2024-03-23T04:52:08;27.05;;;19.25;;
1400;SDS011;46518;48.842;8.926;2024-03-23T04:54:35;22.65;;;16.50;;
1400;SDS011;46518;48.842;8.926;2024-03-23T04:57:04;24.38;;;18.83;;
1400;SDS011;46518;48.842;8.926;2024-03-23T04:59:30;28.58;;;20.23;;
1400;SDS011;46518;48.842;8.926;2024-03-23T05:07:08;31.40;;;20.25;;
1400;SDS011;46518;48.842;8.926;2024-03-23T05:09:36;29.92;;;20.08;;
1400;SDS011;46518;48.842;8.926;2024-03-23T05:12:04;29.45;;;19.35;;
1400;SDS011;46518;48.842;8.926;2024-03-23T05:14:32;27.98;;;18.35;;
1400;SDS011;46518;48.842;8.926;2024-03-23T05:16:58;27.92;;;18.77;;
1400;SDS011;46518;48.842;8.926;2024-03-23T05:19:25;30.50;;;18.98;;
1400;SDS011;46518;48.842;8.926;2024-03-23T05:21:51;29.15;;;17.38;;
1400;SDS011;46518;48.842;8.926;2024-03-23T05:24:19;23.08;;;17.38;;
1400;SDS011;46518;48.842;8.926;2024-03-23T05:26:45;25.98;;;15.90;;
1400;SDS011;46518;48.842;8.926;2024-03-23T05:29:13;22.95;;;16.98;;
1400;SDS011;46518;48.842;8.926;2024-03-23T05:31:40;22.00;;;13.70;;
1400;SDS011;46518;48.842;8.926;2024-03-23T05:34:07;23.33;;;16.02;;
1400;SDS011;46518;48.842;8.926;2024-03-23T05:36:34;21.27;;;14.93;;
1400;SDS011;46518;48.842;8.926;2024-03-23T05:39:01;24.92;;;15.38;;
1400;SDS011;46518;48.842;8.926;2024-03-23T05:41:28;21.30;;;13.45;;
1400;SDS011;46518;48.842;8.926;2024-03-23T05:43:56;20.83;;;13.32;;
1400;SDS011;46518;48.842;8.926;2024-03-23T05:46:24;16.35;;;12.57;;
1400;SDS011;46518;48.842;8.926;2024-03-23T05:48:52;18.92;;;11.80;;
1400;SDS011;46518;48.842;8.926;2024-03-23T05:51:25;13.45;;;8.82;;
1400;SDS011;46518;48.842;8.926;2024-03-23T05:53:51;11.07;;;8.02;;
1400;SDS011;46518;48.842;8.926;2024-03-23T05:56:19;9.90;;;6.93;;
1400;SDS011;46518;48.842;8.926;2024-03-23T05:58:45;11.88;;;7.63;;
1400;SDS011;46518;48.842;8.926;2024-03-23T06:01:14;10.88;;;6.97;;
1400;SDS011;46518;48.842;8.926;2024-03-23T06:03:41;8.18;;;5.78;;
1400;SDS011;46518;48.842;8.926;2024-03-23T06:06:09;8.80;;;6.45;;
1400;SDS011;46518;48.842;8.926;2024-03-23T06:08:37;10.02;;;5.75;;
1400;SDS011;46518;48.842;8.926;2024-03-23T06:11:04;11.60;;;7.20;;
1400;SDS011;46518;48.842;8.926;2024-03-23T06:13:31;7.90;;;5.63;;
1400;SDS011;46518;48.842;8.926;2024-03-23T06:15:59;6.22;;;4.65;;
1400;SDS011;46518;48.842;8.926;2024-03-23T06:18:26;6.05;;;4.80;;
1400;SDS011;46518;48.842;8.926;2024-03-23T06:20:56;6.20;;;3.88;;
1400;SDS011;46518;48.842;8.926;2024-03-23T06:23:23;3.20;;;2.90;;
1400;SDS011;46518;48.842;8.926;2024-03-23T06:25:50;3.70;;;2.60;;
1400;SDS011;46518;48.842;8.926;2024-03-23T06:28:16;5.07;;;2.72;;
1400;SDS011;46518;48.842;8.926;2024-03-23T06:30:44;2.28;;;2.08;;
1400;SDS011;46518;48.842;8.926;2024-03-23T06:33:10;5.85;;;2.50;;
1400;SDS011;46518;48.842;8.926;2024-03-23T06:35:38;1.80;;;1.52;;
1400;SDS011;46518;48.842;8.926;2024-03-23T06:38:07;3.40;;;1.70;;
1400;SDS011;46518;48.842;8.926;2024-03-23T06:40:35;3.83;;;1.98;;
1400;SDS011;46518;48.842;8.926;2024-03-23T06:43:01;1.60;;;1.50;;
1400;SDS011;46518;48.842;8.926;2024-03-23T06:45:29;2.08;;;1.70;;
1400;SDS011;46518;48.842;8.926;2024-03-23T06:47:55;2.05;;;1.83;;
1400;SDS011;46518;48.842;8.926;2024-03-23T06:50:24;2.17;;;1.60;;
1400;SDS011;46518;48.842;8.926;2024-03-23T06:52:51;1.70;;;1.60;;
1400;SDS011;46518;48.842;8.926;2024-03-23T06:55:19;1.90;;;1.58;;
1400;SDS011;46518;48.842;8.926;2024-03-23T06:57:45;1.45;;;1.30;;
1400;SDS011;46518;48.842;8.926;2024-03-23T07:00:13;1.85;;;1.33;;
1400;SDS011;46518;48.842;8.926;2024-03-23T07:02:41;1.45;;;1.25;;
1400;SDS011;46518;48.842;8.926;2024-03-23T07:05:09;1.23;;;1.00;;
1400;SDS011;46518;48.842;8.926;2024-03-23T07:07:39;1.40;;;1.10;;
1400;SDS011;46518;48.842;8.926;2024-03-23T07:10:06;2.75;;;1.40;;
1400;SDS011;46518;48.842;8.926;2024-03-23T07:12:34;1.45;;;0.90;;
1400;SDS011;46518;48.842;8.926;2024-03-23T07:15:02;1.30;;;1.20;;
1400;SDS011;46518;48.842;8.926;2024-03-23T07:17:28;2.25;;;1.60;;
1400;SDS011;46518;48.842;8.926;2024-03-23T07:19:56;1.58;;;1.10;;
1400;SDS011;46518;48.842;8.926;2024-03-23T07:22:22;1.20;;;1.10;;
1400;SDS011;46518;48.842;8.926;2024-03-23T07:24:49;2.22;;;1.83;;
1400;SDS011;46518;48.842;8.926;2024-03-23T07:27:16;1.95;;;1.23;;
1400;SDS011;46518;48.842;8.926;2024-03-23T07:29:44;1.48;;;1.35;;
1400;SDS011;46518;48.842;8.926;2024-03-23T07:32:11;2.13;;;1.30;;
1400;SDS011;46518;48.842;8.926;2024-03-23T07:34:38;1.45;;;1.35;;
1400;SDS011;46518;48.842;8.926;2024-03-23T07:37:04;0.80;;;0.80;;
1400;SDS011;46518;48.842;8.926;2024-03-23T07:39:32;1.60;;;1.25;;
1400;SDS011;46518;48.842;8.926;2024-03-23T07:41:59;1.55;;;1.45;;
1400;SDS011;46518;48.842;8.926;2024-03-23T07:44:26;1.08;;;1.00;;
1400;SDS011;46518;48.842;8.926;2024-03-23T07:46:54;1.30;;;1.20;;
1400;SDS011;46518;48.842;8.926;2024-03-23T07:49:21;2.33;;;1.60;;
1400;SDS011;46518;48.842;8.926;2024-03-23T07:51:48;1.25;;;1.05;;
1400;SDS011;46518;48.842;8.926;2024-03-23T07:54:15;2.53;;;1.80;;
1400;SDS011;46518;48.842;8.926;2024-03-23T07:56:41;1.75;;;1.50;;
1400;SDS011;46518;48.842;8.926;2024-03-23T07:59:09;1.98;;;1.30;;
1400;SDS011;46518;48.842;8.926;2024-03-23T08:01:35;1.70;;;1.45;;
1400;SDS011;46518;48.842;8.926;2024-03-23T08:04:04;2.03;;;1.88;;
1400;SDS011;46518;48.842;8.926;2024-03-23T08:06:30;1.70;;;1.60;;
1400;SDS011;46518;48.842;8.926;2024-03-23T08:08:57;2.67;;;1.58;;
1400;SDS011;46518;48.842;8.926;2024-03-23T08:11:28;1.88;;;1.77;;
1400;SDS011;46518;48.842;8.926;2024-03-23T08:13:56;1.55;;;1.45;;
1400;SDS011;46518;48.842;8.926;2024-03-23T08:16:23;1.52;;;1.42;;
1400;SDS011;46518;48.842;8.926;2024-03-23T08:18:51;1.40;;;1.30;;
1400;SDS011;46518;48.842;8.926;2024-03-23T08:21:19;1.48;;;1.30;;
1400;SDS011;46518;48.842;8.926;2024-03-23T08:23:46;1.35;;;1.25;;
1400;SDS011;46518;48.842;8.926;2024-03-23T08:26:15;3.45;;;1.35;;
1400;SDS011;46518;48.842;8.926;2024-03-23T08:28:43;2.10;;;1.70;;
1400;SDS011;46518;48.842;8.926;2024-03-23T08:31:10;1.95;;;1.80;;
1400;SDS011;46518;48.842;8.926;2024-03-23T08:33:38;2.40;;;1.63;;
1400;SDS011;46518;48.842;8.926;2024-03-23T08:36:05;2.03;;;1.83;;
1400;SDS011;46518;48.842;8.926;2024-03-23T08:38:39;1.65;;;1.55;;
1400;SDS011;46518;48.842;8.926;2024-03-23T08:41:06;1.73;;;1.63;;
1400;SDS011;46518;48.842;8.926;2024-03-23T08:43:35;1.75;;;1.45;;
1400;SDS011;46518;48.842;8.926;2024-03-23T08:46:05;4.90;;;2.00;;
1400;SDS011;46518;48.842;8.926;2024-03-23T08:48:34;4.47;;;2.30;;
1400;SDS011;46518;48.842;8.926;2024-03-23T08:51:01;1.67;;;1.55;;
1400;SDS011;46518;48.842;8.926;2024-03-23T08:53:29;2.55;;;2.25;;
1400;SDS011;46518;48.842;8.926;2024-03-23T08:56:00;2.13;;;2.03;;
1400;SDS011;46518;48.842;8.926;2024-03-23T08:58:28;2.55;;;2.20;;
1400;SDS011;46518;48.842;8.926;2024-03-23T09:01:02;4.03;;;2.40;;
1400;SDS011;46518;48.842;8.926;2024-03-23T09:03:30;3.28;;;2.30;;
1400;SDS011;46518;48.842;8.926;2024-03-23T09:05:59;4.82;;;3.13;;
1400;SDS011;46518;48.842;8.926;2024-03-23T09:08:27;5.43;;;3.67;;
1400;SDS011;46518;48.842;8.926;2024-03-23T09:10:55;6.85;;;4.07;;
1400;SDS011;46518;48.842;8.926;2024-03-23T09:13:24;7.35;;;3.35;;
1400;SDS011;46518;48.842;8.926;2024-03-23T09:15:51;6.20;;;3.60;;
1400;SDS011;46518;48.842;8.926;2024-03-23T09:18:22;5.10;;;3.40;;
1400;SDS011;46518;48.842;8.926;2024-03-23T09:20:50;7.57;;;4.07;;
1400;SDS011;46518;48.842;8.926;2024-03-23T09:23:18;7.10;;;3.50;;
1400;SDS011;46518;48.842;8.926;2024-03-23T09:25:45;6.50;;;3.67;;
1400;SDS011;46518;48.842;8.926;2024-03-23T09:28:12;13.82;;;5.03;;
1400;SDS011;46518;48.842;8.926;2024-03-23T09:30:43;5.93;;;2.85;;
1400;SDS011;46518;48.842;8.926;2024-03-23T09:33:10;6.47;;;4.22;;
1400;SDS011;46518;48.842;8.926;2024-03-23T09:35:37;4.40;;;3.25;;
1400;SDS011;46518;48.842;8.926;2024-03-23T09:38:04;5.13;;;4.07;;
1400;SDS011;46518;48.842;8.926;2024-03-23T09:40:33;4.30;;;3.65;;
1400;SDS011;46518;48.842;8.926;2024-03-23T09:43:00;4.80;;;4.20;;
1400;SDS011;46518;48.842;8.926;2024-03-23T09:45:27;9.18;;;4.90;;
1400;SDS011;46518;48.842;8.926;2024-03-23T09:47:56;5.45;;;3.80;;
1400;SDS011;46518;48.842;8.926;2024-03-23T09:50:23;11.85;;;6.45;;
1400;SDS011;46518;48.842;8.926;2024-03-23T09:52:51;10.70;;;4.88;;
1400;SDS011;46518;48.842;8.926;2024-03-23T09:55:17;10.23;;;6.45;;
1400;SDS011;46518;48.842;8.926;2024-03-23T09:57:44;8.93;;;4.60;;
1400;SDS011;46518;48.842;8.926;2024-03-23T10:00:11;8.07;;;4.60;;
1400;SDS011;46518;48.842;8.926;2024-03-23T10:02:39;9.38;;;4.90;;
1400;SDS011;46518;48.842;8.926;2024-03-23T10:05:17;11.85;;;6.40;;
1400;SDS011;46518;48.842;8.926;2024-03-23T10:07:47;9.00;;;4.05;;
1400;SDS011;46518;48.842;8.926;2024-03-23T10:10:15;14.25;;;4.95;;
1400;SDS011;46518;48.842;8.926;2024-03-23T10:12:44;10.00;;;5.18;;
1400;SDS011;46518;48.842;8.926;2024-03-23T10:15:15;6.85;;;4.25;;
1400;SDS011;46518;48.842;8.926;2024-03-23T10:17:45;9.05;;;4.28;;
1400;SDS011;46518;48.842;8.926;2024-03-23T10:20:11;7.25;;;4.20;;
1400;SDS011;46518;48.842;8.926;2024-03-23T10:22:40;10.88;;;5.10;;
1400;SDS011;46518;48.842;8.926;2024-03-23T10:25:07;7.70;;;4.93;;
1400;SDS011;46518;48.842;8.926;2024-03-23T10:27:35;7.45;;;6.07;;
1400;SDS011;46518;48.842;8.926;2024-03-23T10:30:07;7.32;;;4.85;;
1400;SDS011;46518;48.842;8.926;2024-03-23T10:32:35;11.10;;;5.65;;
1400;SDS011;46518;48.842;8.926;2024-03-23T10:35:15;10.40;;;5.70;;
1400;SDS011;46518;48.842;8.926;2024-03-23T10:37:46;7.80;;;4.68;;
1400;SDS011;46518;48.842;8.926;2024-03-23T10:40:13;7.78;;;5.03;;
1400;SDS011;46518;48.842;8.926;2024-03-23T10:42:40;8.77;;;5.03;;
1400;SDS011;46518;48.842;8.926;2024-03-23T10:45:07;8.05;;;5.28;;
1400;SDS011;46518;48.842;8.926;2024-03-23T10:47:35;9.77;;;5.13;;
1400;SDS011;46518;48.842;8.926;2024-03-23T10:50:03;9.18;;;4.57;;
1400;SDS011;46518;48.842;8.926;2024-03-23T10:52:32;8.95;;;5.05;;
1400;SDS011;46518;48.842;8.926;2024-03-23T10:55:00;13.18;;;6.88;;
1400;SDS011;46518;48.842;8.926;2024-03-23T10:57:34;7.43;;;5.35;;
1400;SDS011;46518;48.842;8.926;2024-03-23T11:00:06;8.73;;;5.25;;
1400;SDS011;46518;48.842;8.926;2024-03-23T11:02:36;11.07;;;6.85;;
1400;SDS011;46518;48.842;8.926;2024-03-23T11:05:03;10.43;;;4.80;;
1400;SDS011;46518;48.842;8.926;2024-03-23T11:07:57;13.43;;;7.85;;
1400;SDS011;46518;48.842;8.926;2024-03-23T11:10:26;11.55;;;6.15;;
1400;SDS011;46518;48.842;8.926;2024-03-23T11:12:54;14.38;;;7.38;;
1400;SDS011;46518;48.842;8.926;2024-03-23T11:15:21;11.25;;;6.57;;
1400;SDS011;46518;48.842;8.926;2024-03-23T11:18:02;10.93;;;6.05;;
1400;SDS011;46518;48.842;8.926;2024-03-23T11:20:32;11.32;;;6.72;;
1400;SDS011;46518;48.842;8.926;2024-03-23T11:23:01;8.52;;;5.25;;
1400;SDS011;46518;48.842;8.926;2024-03-23T11:25:29;8.30;;;4.30;;
1400;SDS011;46518;48.842;8.926;2024-03-23T11:27:57;8.27;;;3.83;;
1400;SDS011;46518;48.842;8.926;2024-03-23T11:30:25;6.20;;;3.63;;
1400;SDS011;46518;48.842;8.926;2024-03-23T11:32:55;3.97;;;3.58;;
1400;SDS011;46518;48.842;8.926;2024-03-23T11:35:26;5.53;;;2.92;;
1400;SDS011;46518;48.842;8.926;2024-03-23T11:38:01;6.20;;;2.95;;
1400;SDS011;46518;48.842;8.926;2024-03-23T11:40:32;3.35;;;2.90;;
1400;SDS011;46518;48.842;8.926;2024-03-23T11:43:00;6.28;;;2.63;;
1400;SDS011;46518;48.842;8.926;2024-03-23T11:45:29;5.30;;;2.28;;
1400;SDS011;46518;48.842;8.926;2024-03-23T11:48:04;6.18;;;2.05;;
1400;SDS011;46518;48.842;8.926;2024-03-23T11:50:33;3.47;;;1.85;;
1400;SDS011;46518;48.842;8.926;2024-03-23T11:53:12;4.97;;;1.92;;
1400;SDS011;46518;48.842;8.926;2024-03-23T11:55:42;7.40;;;1.77;;
1400;SDS011;46518;48.842;8.926;2024-03-23T11:58:14;8.68;;;2.53;;
1400;SDS011;46518;48.842;8.926;2024-03-23T12:00:41;8.07;;;2.10;;
1400;SDS011;46518;48.842;8.926;2024-03-23T12:03:08;6.20;;;2.80;;
1400;SDS011;46518;48.842;8.926;2024-03-23T12:05:36;2.97;;;2.25;;
1400;SDS011;46518;48.842;8.926;2024-03-23T12:08:18;5.95;;;2.70;;
1400;SDS011;46518;48.842;8.926;2024-03-23T12:10:47;4.38;;;2.70;;
1400;SDS011;46518;48.842;8.926;2024-03-23T12:13:19;4.00;;;3.35;;
1400;SDS011;46518;48.842;8.926;2024-03-23T12:18:36;9.00;;;3.75;;
1400;SDS011;46518;48.842;8.926;2024-03-23T12:21:02;7.20;;;3.80;;
1400;SDS011;46518;48.842;8.926;2024-03-23T12:23:30;6.25;;;3.03;;
1400;SDS011;46518;48.842;8.926;2024-03-23T12:25:57;5.78;;;3.47;;
1400;SDS011;46518;48.842;8.926;2024-03-23T12:28:25;9.80;;;3.15;;
1400;SDS011;46518;48.842;8.926;2024-03-23T12:30:51;4.22;;;2.75;;
1400;SDS011;46518;48.842;8.926;2024-03-23T12:33:19;4.45;;;3.15;;
1400;SDS011;46518;48.842;8.926;2024-03-23T12:35:46;10.20;;;3.88;;
1400;SDS011;46518;48.842;8.926;2024-03-23T12:38:13;5.88;;;3.13;;
1400;SDS011;46518;48.842;8.926;2024-03-23T12:40:39;5.10;;;3.70;;
1400;SDS011;46518;48.842;8.926;2024-03-23T12:43:08;7.47;;;3.75;;
1400;SDS011;46518;48.842;8.926;2024-03-23T12:45:34;6.63;;;3.28;;
1400;SDS011;46518;48.842;8.926;2024-03-23T12:48:01;9.52;;;6.05;;
1400;SDS011;46518;48.842;8.926;2024-03-23T12:50:27;3.72;;;2.80;;
1400;SDS011;46518;48.842;8.926;2024-03-23T12:52:54;8.23;;;3.65;;
1400;SDS011;46518;48.842;8.926;2024-03-23T12:55:20;5.75;;;3.25;;
1400;SDS011;46518;48.842;8.926;2024-03-23T12:57:48;6.57;;;3.00;;
1400;SDS011;46518;48.842;8.926;2024-03-23T13:00:16;7.50;;;3.13;;
1400;SDS011;46518;48.842;8.926;2024-03-23T13:02:43;6.40;;;3.70;;
1400;SDS011;46518;48.842;8.926;2024-03-23T13:10:20;7.85;;;2.88;;
1400;SDS011;46518;48.842;8.926;2024-03-23T13:12:47;4.38;;;2.55;;
1400;SDS011;46518;48.842;8.926;2024-03-23T13:15:13;6.03;;;2.70;;
1400;SDS011;46518;48.842;8.926;2024-03-23T13:17:43;5.45;;;2.63;;
1400;SDS011;46518;48.842;8.926;2024-03-23T13:20:10;4.93;;;2.80;;
1400;SDS011;46518;48.842;8.926;2024-03-23T13:22:40;7.13;;;3.10;;
1400;SDS011;46518;48.842;8.926;2024-03-23T13:25:06;3.92;;;2.83;;
1400;SDS011;46518;48.842;8.926;2024-03-23T13:27:34;4.75;;;3.33;;
1400;SDS011;46518;48.842;8.926;2024-03-23T13:30:00;5.47;;;2.33;;
1400;SDS011;46518;48.842;8.926;2024-03-23T13:32:29;5.75;;;2.97;;
1400;SDS011;46518;48.842;8.926;2024-03-23T13:34:56;7.90;;;3.50;;
1400;SDS011;46518;48.842;8.926;2024-03-23T13:37:24;4.57;;;2.33;;
1400;SDS011;46518;48.842;8.926;2024-03-23T13:39:50;7.90;;;2.85;;
1400;SDS011;46518;48.842;8.926;2024-03-23T13:42:17;8.15;;;3.00;;
1400;SDS011;46518;48.842;8.926;2024-03-23T13:44:43;7.68;;;2.20;;
1400;SDS011;46518;48.842;8.926;2024-03-23T13:47:10;3.45;;;1.90;;
1400;SDS011;46518;48.842;8.926;2024-03-23T13:49:36;4.10;;;2.60;;
1400;SDS011;46518;48.842;8.926;2024-03-23T13:52:07;2.92;;;2.08;;
1400;SDS011;46518;48.842;8.926;2024-03-23T13:54:34;4.95;;;2.53;;
1400;SDS011;46518;48.842;8.926;2024-03-23T13:57:01;4.95;;;3.00;;
1400;SDS011;46518;48.842;8.926;2024-03-23T13:59:27;7.28;;;2.80;;
1400;SDS011;46518;48.842;8.926;2024-03-23T14:01:54;8.18;;;2.92;;
1400;SDS011;46518;48.842;8.926;2024-03-23T14:04:20;2.95;;;2.53;;
1400;SDS011;46518;48.842;8.926;2024-03-23T14:06:49;3.75;;;2.55;;
1400;SDS011;46518;48.842;8.926;2024-03-23T14:09:16;6.43;;;3.25;;
1400;SDS011;46518;48.842;8.926;2024-03-23T14:11:46;3.45;;;2.75;;
1400;SDS011;46518;48.842;8.926;2024-03-23T14:14:13;4.60;;;2.67;;
1400;SDS011;46518;48.842;8.926;2024-03-23T14:16:42;5.05;;;2.75;;
1400;SDS011;46518;48.842;8.926;2024-03-23T14:19:09;2.55;;;2.33;;
1400;SDS011;46518;48.842;8.926;2024-03-23T14:21:37;8.32;;;3.42;;
1400;SDS011;46518;48.842;8.926;2024-03-23T14:24:04;3.55;;;2.78;;
1400;SDS011;46518;48.842;8.926;2024-03-23T14:26:33;7.10;;;3.28;;
1400;SDS011;46518;48.842;8.926;2024-03-23T14:28:59;4.70;;;3.55;;
1400;SDS011;46518;48.842;8.926;2024-03-23T14:31:26;2.92;;;2.45;;
1400;SDS011;46518;48.842;8.926;2024-03-23T14:33:52;7.15;;;2.33;;
1400;SDS011;46518;48.842;8.926;2024-03-23T14:36:19;4.28;;;2.35;;
1400;SDS011;46518;48.842;8.926;2024-03-23T14:38:46;1.63;;;1.40;;
1400;SDS011;46518;48.842;8.926;2024-03-23T14:41:14;2.35;;;1.50;;
1400;SDS011;46518;48.842;8.926;2024-03-23T14:43:42;7.45;;;2.25;;
1400;SDS011;46518;48.842;8.926;2024-03-23T14:46:10;3.10;;;2.08;;
1400;SDS011;46518;48.842;8.926;2024-03-23T14:48:39;5.00;;;1.20;;
1400;SDS011;46518;48.842;8.926;2024-03-23T14:51:06;2.70;;;1.60;;
1400;SDS011;46518;48.842;8.926;2024-03-23T14:53:34;1.92;;;1.77;;
1400;SDS011;46518;48.842;8.926;2024-03-23T14:56:05;6.60;;;1.92;;
1400;SDS011;46518;48.842;8.926;2024-03-23T14:58:32;4.70;;;1.75;;
1400;SDS011;46518;48.842;8.926;2024-03-23T15:01:02;2.85;;;1.80;;
1400;SDS011;46518;48.842;8.926;2024-03-23T15:03:28;3.05;;;1.90;;
1400;SDS011;46518;48.842;8.926;2024-03-23T15:05:58;2.15;;;1.70;;
1400;SDS011;46518;48.842;8.926;2024-03-23T15:08:25;1.77;;;1.45;;
1400;SDS011;46518;48.842;8.926;2024-03-23T15:10:53;2.15;;;1.95;;
1400;SDS011;46518;48.842;8.926;2024-03-23T15:13:19;3.85;;;2.10;;
1400;SDS011;46518;48.842;8.926;2024-03-23T15:15:48;2.65;;;1.70;;
1400;SDS011;46518;48.842;8.926;2024-03-23T15:18:16;2.88;;;2.20;;
1400;SDS011;46518;48.842;8.926;2024-03-23T15:20:54;1.63;;;1.45;;
1400;SDS011;46518;48.842;8.926;2024-03-23T15:23:20;2.10;;;1.50;;
1400;SDS011;46518;48.842;8.926;2024-03-23T15:25:53;1.92;;;1.70;;
1400;SDS011;46518;48.842;8.926;2024-03-23T15:28:23;2.97;;;1.60;;
1400;SDS011;46518;48.842;8.926;2024-03-23T15:30:52;2.35;;;1.20;;
1400;SDS011;46518;48.842;8.926;2024-03-23T15:33:20;3.35;;;1.50;;
1400;SDS011;46518;48.842;8.926;2024-03-23T15:35:47;3.72;;;1.75;;
1400;SDS011;46518;48.842;8.926;2024-03-23T15:38:13;3.00;;;1.60;;
1400;SDS011;46518;48.842;8.926;2024-03-23T15:41:09;2.90;;;1.90;;
1400;SDS011;46518;48.842;8.926;2024-03-23T15:43:37;5.35;;;1.48;;
1400;SDS011;46518;48.842;8.926;2024-03-23T15:46:05;1.75;;;1.30;;
1400;SDS011;46518;48.842;8.926;2024-03-23T15:48:33;2.13;;;1.65;;
1400;SDS011;46518;48.842;8.926;2024-03-23T15:51:00;3.45;;;1.55;;
1400;SDS011;46518;48.842;8.926;2024-03-23T15:53:28;1.95;;;1.55;;
1400;SDS011;46518;48.842;8.926;2024-03-23T15:55:55;2.85;;;1.60;;
1400;SDS011;46518;48.842;8.926;2024-03-23T15:58:22;1.83;;;1.42;;
1400;SDS011;46518;48.842;8.926;2024-03-23T16:00:54;3.92;;;1.85;;
1400;SDS011;46518;48.842;8.926;2024-03-23T16:03:20;1.60;;;1.50;;
1400;SDS011;46518;48.842;8.926;2024-03-23T16:05:51;1.42;;;1.33;;
1400;SDS011;46518;48.842;8.926;2024-03-23T16:08:17;1.67;;;1.10;;
1400;SDS011;46518;48.842;8.926;2024-03-23T16:10:44;1.80;;;1.60;;